Terminal Aerodrome Forecast
Issued by NWS Greer, SC

Home | Current Version | Previous Version | Text Only | Print | Product List | Glossary On
Versions: 1 2 3 4 5 6 7 8 9 10 11 12 13 14 15 16 17 18 19 20 21 22 23 24 25 26 27 28
703
FTUS42 KGSP 192001 AAB
TAFGSP
TAF AMD
KGSP 192001Z 1920/2018 06006KT P6SM BKN250
     FM200100 04003KT P6SM SKC
     FM201700 06007KT P6SM FEW200=

USA.gov is the U.S. government's official web portal to all federal, state and local government web resources and services.